createdAt,value
2022-12-08T00:02:23.239Z,9.00
2022-12-08T00:07:45.727Z,11.75
2022-12-08T00:12:50.036Z,13.00
2022-12-08T00:17:54.420Z,13.00
2022-12-08T00:22:58.537Z,11.50
2022-12-08T00:28:02.624Z,13.00
2022-12-08T00:33:06.692Z,11.25
2022-12-08T00:38:10.814Z,11.50
2022-12-08T00:43:15.488Z,12.50
2022-12-08T00:48:19.535Z,9.75
2022-12-08T00:53:23.649Z,10.25
2022-12-08T00:58:27.698Z,10.00
2022-12-08T01:03:31.816Z,10.25
2022-12-08T01:08:38.139Z,9.00
2022-12-08T01:13:42.682Z,9.75
2022-12-08T01:18:46.839Z,9.00
2022-12-08T01:23:51.129Z,9.00
2022-12-08T01:28:55.276Z,8.00
2022-12-08T01:33:59.987Z,8.00
2022-12-08T01:39:04.175Z,7.75
2022-12-08T01:44:13.924Z,7.00
2022-12-08T01:49:21.459Z,7.75
2022-12-08T01:54:28.117Z,7.50
2022-12-08T01:59:34.640Z,5.75
2022-12-08T02:04:38.808Z,5.75
2022-12-08T02:09:43.608Z,4.50
2022-12-08T02:14:47.680Z,5.00
2022-12-08T02:19:52.531Z,4.00
2022-12-08T02:25:07.251Z,6.25
2022-12-08T02:30:21.548Z,5.00
2022-12-08T02:35:29.230Z,4.00
2022-12-08T02:40:41.492Z,4.25
2022-12-08T02:46:02.319Z,5.25
2022-12-08T02:51:07.203Z,3.00
2022-12-08T02:56:18.643Z,7.25
2022-12-08T03:01:41.536Z,5.25
2022-12-08T03:06:48.857Z,3.75
2022-12-08T03:12:15.340Z,5.00
2022-12-08T03:17:22.577Z,3.00
2022-12-08T03:22:29.361Z,3.50
2022-12-08T03:27:34.327Z,3.00
2022-12-08T03:32:48.992Z,3.00
2022-12-08T03:37:53.588Z,4.25
2022-12-08T03:42:57.684Z,2.00
2022-12-08T03:48:02.521Z,2.00
2022-12-08T03:53:07.081Z,3.00
2022-12-08T03:58:11.650Z,3.00
2022-12-08T04:03:16.377Z,2.25
2022-12-08T04:08:21.391Z,2.00
2022-12-08T04:13:26.254Z,3.25
2022-12-08T04:18:31.068Z,3.00
2022-12-08T04:23:36.178Z,4.00
2022-12-08T04:28:41.018Z,3.00
2022-12-08T04:33:46.689Z,4.75
2022-12-08T04:38:51.466Z,4.50
2022-12-08T04:43:56.187Z,5.75
2022-12-08T04:49:00.781Z,5.00
2022-12-08T04:54:05.476Z,3.00
2022-12-08T04:59:10.853Z,3.00
2022-12-08T05:04:15.578Z,3.50
2022-12-08T05:09:22.822Z,2.75
2022-12-08T05:14:29.797Z,4.75
2022-12-08T05:19:34.281Z,3.25
2022-12-08T05:24:45.589Z,3.00
2022-12-08T05:29:52.073Z,2.00
2022-12-08T05:34:56.833Z,2.00
2022-12-08T05:40:02.497Z,3.00
2022-12-08T05:45:07.511Z,2.50
2022-12-08T05:50:12.408Z,4.00
2022-12-08T05:55:17.492Z,2.00
2022-12-08T06:00:22.755Z,2.00
2022-12-08T06:05:27.658Z,2.00
2022-12-08T06:10:34.529Z,2.25
2022-12-08T06:15:39.936Z,1.75
2022-12-08T06:20:44.563Z,1.75
2022-12-08T06:25:50.544Z,1.50
2022-12-08T06:30:55.405Z,3.00
2022-12-08T06:36:00.596Z,1.75
2022-12-08T06:41:07.178Z,1.00
2022-12-08T06:46:14.113Z,1.00
2022-12-08T06:51:19.812Z,2.00
2022-12-08T06:56:29.553Z,2.25
2022-12-08T07:01:34.331Z,1.25
2022-12-08T07:06:41.714Z,1.00
2022-12-08T07:11:52.521Z,1.00
2022-12-08T07:16:56.937Z,2.50
2022-12-08T07:22:01.741Z,1.00
2022-12-08T07:27:06.354Z,1.00
2022-12-08T07:32:11.048Z,1.00
2022-12-08T07:37:16.003Z,0.50
2022-12-08T07:42:20.723Z,0.00
2022-12-08T07:47:25.041Z,1.00
2022-12-08T07:52:29.948Z,0.00
2022-12-08T07:57:35.200Z,1.00
2022-12-08T08:02:40.277Z,0.00
2022-12-08T08:07:46.150Z,1.00
2022-12-08T08:12:50.556Z,0.00
2022-12-08T08:17:55.368Z,1.00
2022-12-08T08:23:01.270Z,0.50
2022-12-08T08:28:06.017Z,0.75
2022-12-08T08:33:11.325Z,0.50
2022-12-08T08:38:16.115Z,0.00
2022-12-08T08:43:38.093Z,1.00
2022-12-08T08:48:43.194Z,1.00
2022-12-08T08:53:47.953Z,1.00
2022-12-08T08:58:53.288Z,2.00
2022-12-08T09:03:58.615Z,3.00
2022-12-08T09:09:03.393Z,3.00
2022-12-08T09:14:09.730Z,3.25
2022-12-08T09:19:16.823Z,5.00
2022-12-08T09:24:21.050Z,10.50
2022-12-08T09:29:32.562Z,11.25
2022-12-08T09:34:43.686Z,15.50
2022-12-08T09:39:51.023Z,19.75
2022-12-08T09:45:12.641Z,22.00
2022-12-08T09:50:32.378Z,20.00
2022-12-08T09:55:49.182Z,17.75
2022-12-08T10:00:53.948Z,16.75
2022-12-08T10:06:17.861Z,16.75
2022-12-08T10:11:27.038Z,15.00
2022-12-08T10:16:42.933Z,14.75
2022-12-08T10:21:48.052Z,13.75
2022-12-08T10:26:52.737Z,13.25
2022-12-08T10:32:01.611Z,13.25
2022-12-08T10:37:11.538Z,14.25
2022-12-08T10:42:15.870Z,14.25
2022-12-08T10:47:23.026Z,12.75
2022-12-08T10:52:28.923Z,14.00
2022-12-08T10:57:34.353Z,13.75
2022-12-08T11:02:39.135Z,14.50
2022-12-08T11:07:49.247Z,12.00
2022-12-08T11:12:53.983Z,13.50
2022-12-08T11:18:04.655Z,13.75
2022-12-08T11:23:21.526Z,14.00
2022-12-08T11:28:26.728Z,13.50
2022-12-08T11:33:32.130Z,16.50
2022-12-08T11:38:41.659Z,13.00
2022-12-08T11:43:55.223Z,12.00
2022-12-08T11:49:06.913Z,13.50
2022-12-08T11:54:24.634Z,15.50
2022-12-08T11:59:31.830Z,15.50
2022-12-08T12:04:41.540Z,13.50
2022-12-08T12:10:04.340Z,14.50
2022-12-08T12:15:25.369Z,13.75
2022-12-08T12:20:40.835Z,18.50
2022-12-08T12:25:59.967Z,17.25
2022-12-08T12:31:07.574Z,19.25
2022-12-08T12:36:13.112Z,15.75
2022-12-08T12:41:25.215Z,15.25
2022-12-08T12:46:30.029Z,19.75
2022-12-08T12:51:37.290Z,20.00
2022-12-08T12:56:53.063Z,15.25
2022-12-08T13:01:58.206Z,13.25
2022-12-08T13:07:03.029Z,14.00
2022-12-08T13:12:21.798Z,18.25
2022-12-08T13:17:29.124Z,16.75
2022-12-08T13:22:55.450Z,17.00
2022-12-08T13:28:10.310Z,14.25
2022-12-08T13:33:37.502Z,12.25
2022-12-08T13:38:42.012Z,13.50
2022-12-08T13:44:10.281Z,13.50
2022-12-08T14:00:05.094Z,15.00
2022-12-08T14:05:19.512Z,17.00
2022-12-08T14:10:29.245Z,15.00
2022-12-08T14:15:38.765Z,15.00
2022-12-08T14:21:12.587Z,17.00
2022-12-08T14:26:09.747Z,16.75
2022-12-08T14:31:15.961Z,17.00
2022-12-08T14:36:22.639Z,15.50
2022-12-08T14:41:29.659Z,16.00
2022-12-08T14:46:38.036Z,15.00
2022-12-08T14:51:43.158Z,13.75
2022-12-08T14:56:53.499Z,14.25
2022-12-08T15:02:13.728Z,12.25
2022-12-08T15:07:26.401Z,13.50
2022-12-08T15:12:34.070Z,13.00
2022-12-08T15:17:48.145Z,14.25
2022-12-08T15:22:55.715Z,15.25
2022-12-08T15:28:00.645Z,13.75
2022-12-08T15:33:05.966Z,14.50
2022-12-08T15:38:18.678Z,16.00
2022-12-08T15:43:24.873Z,17.25
2022-12-08T15:48:30.876Z,14.25
2022-12-08T15:53:35.771Z,16.00
2022-12-08T15:58:57.712Z,15.50
2022-12-08T16:09:33.398Z,14.00
2022-12-08T16:20:04.048Z,13.75
2022-12-08T16:25:18.268Z,16.00
2022-12-08T16:30:23.866Z,15.00
2022-12-08T16:35:28.613Z,18.00
2022-12-08T16:40:33.397Z,17.00
2022-12-08T16:45:44.455Z,18.00
2022-12-08T16:50:49.540Z,19.25
2022-12-08T16:55:54.411Z,20.00
2022-12-08T17:00:59.122Z,20.75
2022-12-08T17:06:04.079Z,20.00
2022-12-08T17:11:13.175Z,19.75
2022-12-08T17:16:20.617Z,22.00
2022-12-08T17:21:25.230Z,19.00
2022-12-08T17:26:29.857Z,18.50
2022-12-08T17:31:34.911Z,19.25
2022-12-08T17:36:39.631Z,20.00
2022-12-08T17:41:44.137Z,19.75
2022-12-08T17:46:52.482Z,17.75
2022-12-08T17:51:58.866Z,18.00
2022-12-08T17:57:03.401Z,19.00
2022-12-08T18:02:08.215Z,17.50
2022-12-08T18:07:12.543Z,18.75
2022-12-08T18:12:22.257Z,19.00
2022-12-08T18:17:28.054Z,15.00
2022-12-08T18:22:32.625Z,14.25
2022-12-08T18:27:42.765Z,14.75
2022-12-08T18:32:49.874Z,15.00
2022-12-08T18:37:57.470Z,12.25
2022-12-08T18:43:02.745Z,13.25
2022-12-08T18:48:07.477Z,11.00
2022-12-08T18:53:12.042Z,12.75
2022-12-08T18:58:16.663Z,12.25
2022-12-08T19:03:21.186Z,12.25
2022-12-08T19:08:31.012Z,10.00
2022-12-08T19:13:36.033Z,12.00
2022-12-08T19:18:41.395Z,9.25
2022-12-08T19:23:45.883Z,11.25
2022-12-08T19:28:50.495Z,9.00
2022-12-08T19:33:55.138Z,9.50
2022-12-08T19:39:17.560Z,9.50
2022-12-08T19:44:45.571Z,8.25
2022-12-08T19:49:50.116Z,7.50
2022-12-08T19:54:54.611Z,8.00
2022-12-08T19:59:58.940Z,7.75
2022-12-08T20:05:03.445Z,8.00
2022-12-08T20:10:09.881Z,6.00
2022-12-08T20:15:15.935Z,7.50
2022-12-08T20:20:20.031Z,6.25
2022-12-08T20:25:24.421Z,8.00
2022-12-08T20:30:28.874Z,8.50
2022-12-08T20:35:33.275Z,5.75
2022-12-08T20:40:37.537Z,6.75
2022-12-08T20:45:41.903Z,7.00
2022-12-08T20:50:46.195Z,5.75
2022-12-08T20:55:50.901Z,4.00
2022-12-08T21:00:55.436Z,5.00
2022-12-08T21:05:59.962Z,6.50
2022-12-08T21:11:04.672Z,5.00
2022-12-08T21:16:10.525Z,5.25
2022-12-08T21:21:16.033Z,4.25
2022-12-08T21:26:22.042Z,3.25
2022-12-08T21:31:32.936Z,4.00
2022-12-08T21:36:37.656Z,5.00
2022-12-08T21:42:00.272Z,5.25
2022-12-08T21:47:07.969Z,5.00
2022-12-08T21:52:12.726Z,5.00
2022-12-08T21:57:17.349Z,4.00
2022-12-08T22:02:22.848Z,4.25
2022-12-08T22:07:27.980Z,5.00
2022-12-08T22:12:33.007Z,5.00
2022-12-08T22:17:38.831Z,5.00
2022-12-08T22:22:43.612Z,4.00
2022-12-08T22:27:48.263Z,4.75
2022-12-08T22:32:55.795Z,3.25
2022-12-08T22:38:00.556Z,4.25
2022-12-08T22:43:05.395Z,4.00
2022-12-08T22:48:10.035Z,4.75
2022-12-08T22:53:15.322Z,3.00
2022-12-08T22:58:19.915Z,3.75
2022-12-08T23:03:24.450Z,4.50
2022-12-08T23:08:28.922Z,5.00
2022-12-08T23:13:33.751Z,4.00
2022-12-08T23:18:38.844Z,4.00
2022-12-08T23:23:43.869Z,4.75
2022-12-08T23:28:48.276Z,3.75
2022-12-08T23:33:53.364Z,4.50
2022-12-08T23:38:57.736Z,4.50
2022-12-08T23:44:01.942Z,3.00
2022-12-08T23:49:06.244Z,4.75
2022-12-08T23:54:11.129Z,4.00
2022-12-08T23:59:15.738Z,3.00
